sensor_id;sensor_type;location;lat;lon;timestamp;P1;durP1;ratioP1;P2;durP2;ratioP2
14139;SDS011;7150;53.514;9.988;2022-08-01T00:01:44;5.63;;;5.00;;
14139;SDS011;7150;53.514;9.988;2022-08-01T00:04:09;4.93;;;4.13;;
14139;SDS011;7150;53.514;9.988;2022-08-01T00:06:35;5.30;;;4.60;;
14139;SDS011;7150;53.514;9.988;2022-08-01T00:09:00;4.80;;;4.00;;
14139;SDS011;7150;53.514;9.988;2022-08-01T00:11:26;4.77;;;4.37;;
14139;SDS011;7150;53.514;9.988;2022-08-01T00:13:51;3.90;;;3.50;;
14139;SDS011;7150;53.514;9.988;2022-08-01T00:16:17;4.53;;;3.90;;
14139;SDS011;7150;53.514;9.988;2022-08-01T00:18:43;4.07;;;3.63;;
14139;SDS011;7150;53.514;9.988;2022-08-01T00:21:08;4.10;;;3.67;;
14139;SDS011;7150;53.514;9.988;2022-08-01T00:23:34;3.43;;;3.13;;
14139;SDS011;7150;53.514;9.988;2022-08-01T00:25:59;4.47;;;3.40;;
14139;SDS011;7150;53.514;9.988;2022-08-01T00:28:25;4.33;;;3.33;;
14139;SDS011;7150;53.514;9.988;2022-08-01T00:30:51;3.60;;;3.20;;
14139;SDS011;7150;53.514;9.988;2022-08-01T00:33:16;5.10;;;4.30;;
14139;SDS011;7150;53.514;9.988;2022-08-01T00:35:42;4.10;;;3.70;;
14139;SDS011;7150;53.514;9.988;2022-08-01T00:38:08;4.80;;;3.70;;
14139;SDS011;7150;53.514;9.988;2022-08-01T00:40:33;4.83;;;3.73;;
14139;SDS011;7150;53.514;9.988;2022-08-01T00:42:59;5.13;;;4.27;;
14139;SDS011;7150;53.514;9.988;2022-08-01T00:45:24;5.17;;;4.40;;
14139;SDS011;7150;53.514;9.988;2022-08-01T00:47:50;6.17;;;4.67;;
14139;SDS011;7150;53.514;9.988;2022-08-01T00:50:15;4.73;;;4.13;;
14139;SDS011;7150;53.514;9.988;2022-08-01T00:52:41;5.83;;;4.57;;
14139;SDS011;7150;53.514;9.988;2022-08-01T00:55:09;6.00;;;3.90;;
14139;SDS011;7150;53.514;9.988;2022-08-01T00:57:37;3.83;;;3.40;;
14139;SDS011;7150;53.514;9.988;2022-08-01T01:00:03;3.80;;;3.43;;
14139;SDS011;7150;53.514;9.988;2022-08-01T01:02:31;4.20;;;3.40;;
14139;SDS011;7150;53.514;9.988;2022-08-01T01:04:57;4.03;;;3.40;;
14139;SDS011;7150;53.514;9.988;2022-08-01T01:07:32;5.30;;;4.30;;
14139;SDS011;7150;53.514;9.988;2022-08-01T01:12:51;3.53;;;3.23;;
14139;SDS011;7150;53.514;9.988;2022-08-01T01:15:36;4.30;;;3.40;;
14139;SDS011;7150;53.514;9.988;2022-08-01T01:18:10;3.70;;;3.13;;
14139;SDS011;7150;53.514;9.988;2022-08-01T01:20:37;3.60;;;3.03;;
14139;SDS011;7150;53.514;9.988;2022-08-01T01:31:41;4.60;;;3.47;;
14139;SDS011;7150;53.514;9.988;2022-08-01T01:34:15;4.50;;;3.70;;
14139;SDS011;7150;53.514;9.988;2022-08-01T01:36:44;4.83;;;3.67;;
14139;SDS011;7150;53.514;9.988;2022-08-01T01:39:12;4.37;;;3.23;;
14139;SDS011;7150;53.514;9.988;2022-08-01T01:41:40;5.10;;;3.73;;
14139;SDS011;7150;53.514;9.988;2022-08-01T01:44:07;4.50;;;3.83;;
14139;SDS011;7150;53.514;9.988;2022-08-01T01:46:35;3.73;;;3.30;;
14139;SDS011;7150;53.514;9.988;2022-08-01T01:49:01;4.97;;;4.07;;
14139;SDS011;7150;53.514;9.988;2022-08-01T01:51:28;5.47;;;3.57;;
14139;SDS011;7150;53.514;9.988;2022-08-01T01:53:54;6.37;;;4.07;;
14139;SDS011;7150;53.514;9.988;2022-08-01T01:56:21;4.97;;;3.90;;
14139;SDS011;7150;53.514;9.988;2022-08-01T01:58:48;4.67;;;3.60;;
14139;SDS011;7150;53.514;9.988;2022-08-01T02:01:19;3.50;;;3.03;;
14139;SDS011;7150;53.514;9.988;2022-08-01T02:03:48;4.47;;;3.10;;
14139;SDS011;7150;53.514;9.988;2022-08-01T02:06:15;4.17;;;2.93;;
14139;SDS011;7150;53.514;9.988;2022-08-01T02:08:41;3.03;;;2.57;;
14139;SDS011;7150;53.514;9.988;2022-08-01T02:11:09;4.03;;;3.43;;
14139;SDS011;7150;53.514;9.988;2022-08-01T02:13:44;3.10;;;2.77;;
14139;SDS011;7150;53.514;9.988;2022-08-01T02:16:28;3.00;;;2.43;;
14139;SDS011;7150;53.514;9.988;2022-08-01T02:19:01;3.50;;;2.80;;
14139;SDS011;7150;53.514;9.988;2022-08-01T02:21:28;3.60;;;2.73;;
14139;SDS011;7150;53.514;9.988;2022-08-01T02:24:12;4.17;;;2.60;;
14139;SDS011;7150;53.514;9.988;2022-08-01T02:26:41;4.40;;;2.80;;
14139;SDS011;7150;53.514;9.988;2022-08-01T02:29:17;4.00;;;2.57;;
14139;SDS011;7150;53.514;9.988;2022-08-01T02:31:47;3.00;;;2.70;;
14139;SDS011;7150;53.514;9.988;2022-08-01T02:34:16;3.27;;;2.93;;
14139;SDS011;7150;53.514;9.988;2022-08-01T02:36:44;3.17;;;2.80;;
14139;SDS011;7150;53.514;9.988;2022-08-01T02:39:13;2.33;;;2.13;;
14139;SDS011;7150;53.514;9.988;2022-08-01T02:41:41;10.60;;;7.50;;
14139;SDS011;7150;53.514;9.988;2022-08-01T02:44:10;8.20;;;5.37;;
14139;SDS011;7150;53.514;9.988;2022-08-01T02:46:43;5.73;;;4.43;;
14139;SDS011;7150;53.514;9.988;2022-08-01T02:49:17;5.07;;;3.70;;
14139;SDS011;7150;53.514;9.988;2022-08-01T02:51:46;4.27;;;2.97;;
14139;SDS011;7150;53.514;9.988;2022-08-01T02:54:13;3.63;;;3.00;;
14139;SDS011;7150;53.514;9.988;2022-08-01T02:56:42;3.47;;;2.80;;
14139;SDS011;7150;53.514;9.988;2022-08-01T02:59:10;2.87;;;2.40;;
14139;SDS011;7150;53.514;9.988;2022-08-01T03:01:39;2.30;;;2.10;;
14139;SDS011;7150;53.514;9.988;2022-08-01T03:04:09;5.37;;;2.77;;
14139;SDS011;7150;53.514;9.988;2022-08-01T03:06:36;2.50;;;2.13;;
14139;SDS011;7150;53.514;9.988;2022-08-01T03:09:03;3.83;;;2.20;;
14139;SDS011;7150;53.514;9.988;2022-08-01T03:11:29;2.87;;;2.40;;
14139;SDS011;7150;53.514;9.988;2022-08-01T03:13:58;3.27;;;2.33;;
14139;SDS011;7150;53.514;9.988;2022-08-01T03:16:26;3.07;;;2.50;;
14139;SDS011;7150;53.514;9.988;2022-08-01T03:18:54;3.13;;;2.60;;
14139;SDS011;7150;53.514;9.988;2022-08-01T03:21:22;2.30;;;2.10;;
14139;SDS011;7150;53.514;9.988;2022-08-01T03:23:49;3.23;;;2.40;;
14139;SDS011;7150;53.514;9.988;2022-08-01T03:26:16;3.10;;;2.27;;
14139;SDS011;7150;53.514;9.988;2022-08-01T03:28:43;2.53;;;2.33;;
14139;SDS011;7150;53.514;9.988;2022-08-01T03:31:11;2.77;;;2.30;;
14139;SDS011;7150;53.514;9.988;2022-08-01T03:33:38;3.00;;;2.57;;
14139;SDS011;7150;53.514;9.988;2022-08-01T03:36:04;3.60;;;2.53;;
14139;SDS011;7150;53.514;9.988;2022-08-01T03:38:33;3.57;;;1.90;;
14139;SDS011;7150;53.514;9.988;2022-08-01T03:41:15;2.90;;;2.00;;
14139;SDS011;7150;53.514;9.988;2022-08-01T03:43:55;2.50;;;2.07;;
14139;SDS011;7150;53.514;9.988;2022-08-01T03:46:26;1.97;;;1.70;;
14139;SDS011;7150;53.514;9.988;2022-08-01T03:48:58;1.67;;;1.57;;
14139;SDS011;7150;53.514;9.988;2022-08-01T03:51:25;3.07;;;1.70;;
14139;SDS011;7150;53.514;9.988;2022-08-01T03:53:53;2.67;;;1.80;;
14139;SDS011;7150;53.514;9.988;2022-08-01T03:56:21;2.80;;;1.80;;
14139;SDS011;7150;53.514;9.988;2022-08-01T03:58:47;2.07;;;1.80;;
14139;SDS011;7150;53.514;9.988;2022-08-01T04:01:15;2.90;;;2.00;;
14139;SDS011;7150;53.514;9.988;2022-08-01T04:03:42;1.97;;;1.77;;
14139;SDS011;7150;53.514;9.988;2022-08-01T04:06:09;2.20;;;1.60;;
14139;SDS011;7150;53.514;9.988;2022-08-01T04:08:38;1.67;;;1.40;;
14139;SDS011;7150;53.514;9.988;2022-08-01T04:11:07;1.83;;;1.63;;
14139;SDS011;7150;53.514;9.988;2022-08-01T04:13:33;1.60;;;1.50;;
14139;SDS011;7150;53.514;9.988;2022-08-01T04:15:59;1.87;;;1.70;;
14139;SDS011;7150;53.514;9.988;2022-08-01T04:18:25;1.70;;;1.57;;
14139;SDS011;7150;53.514;9.988;2022-08-01T04:20:50;3.03;;;1.50;;
14139;SDS011;7150;53.514;9.988;2022-08-01T04:23:16;1.70;;;1.40;;
14139;SDS011;7150;53.514;9.988;2022-08-01T04:25:46;1.60;;;1.50;;
14139;SDS011;7150;53.514;9.988;2022-08-01T04:28:14;3.20;;;1.63;;
14139;SDS011;7150;53.514;9.988;2022-08-01T04:30:41;1.90;;;1.60;;
14139;SDS011;7150;53.514;9.988;2022-08-01T04:33:10;3.60;;;1.83;;
14139;SDS011;7150;53.514;9.988;2022-08-01T04:35:41;1.60;;;1.20;;
14139;SDS011;7150;53.514;9.988;2022-08-01T04:38:10;4.13;;;1.77;;
14139;SDS011;7150;53.514;9.988;2022-08-01T04:40:38;3.77;;;1.80;;
14139;SDS011;7150;53.514;9.988;2022-08-01T04:43:06;1.80;;;1.57;;
14139;SDS011;7150;53.514;9.988;2022-08-01T04:45:32;2.27;;;1.70;;
14139;SDS011;7150;53.514;9.988;2022-08-01T04:47:59;2.30;;;1.80;;
14139;SDS011;7150;53.514;9.988;2022-08-01T04:50:25;2.03;;;1.83;;
14139;SDS011;7150;53.514;9.988;2022-08-01T04:52:51;2.20;;;1.50;;
14139;SDS011;7150;53.514;9.988;2022-08-01T04:55:16;1.93;;;1.40;;
14139;SDS011;7150;53.514;9.988;2022-08-01T04:57:42;2.37;;;1.43;;
14139;SDS011;7150;53.514;9.988;2022-08-01T05:00:10;1.50;;;1.40;;
14139;SDS011;7150;53.514;9.988;2022-08-01T05:02:36;1.40;;;1.30;;
14139;SDS011;7150;53.514;9.988;2022-08-01T05:05:02;1.47;;;1.37;;
14139;SDS011;7150;53.514;9.988;2022-08-01T05:07:30;1.43;;;1.10;;
14139;SDS011;7150;53.514;9.988;2022-08-01T05:09:56;2.13;;;1.20;;
14139;SDS011;7150;53.514;9.988;2022-08-01T05:12:21;2.13;;;1.37;;
14139;SDS011;7150;53.514;9.988;2022-08-01T05:14:47;1.30;;;1.20;;
14139;SDS011;7150;53.514;9.988;2022-08-01T05:17:12;1.23;;;1.13;;
14139;SDS011;7150;53.514;9.988;2022-08-01T05:19:38;1.17;;;1.07;;
14139;SDS011;7150;53.514;9.988;2022-08-01T05:22:06;1.57;;;1.17;;
14139;SDS011;7150;53.514;9.988;2022-08-01T05:24:33;1.00;;;0.90;;
14139;SDS011;7150;53.514;9.988;2022-08-01T05:27:00;1.50;;;1.23;;
14139;SDS011;7150;53.514;9.988;2022-08-01T05:29:26;1.40;;;1.30;;
14139;SDS011;7150;53.514;9.988;2022-08-01T05:31:52;1.50;;;1.30;;
14139;SDS011;7150;53.514;9.988;2022-08-01T05:34:19;1.20;;;1.10;;
14139;SDS011;7150;53.514;9.988;2022-08-01T05:36:45;1.50;;;1.40;;
14139;SDS011;7150;53.514;9.988;2022-08-01T05:39:11;1.53;;;1.43;;
14139;SDS011;7150;53.514;9.988;2022-08-01T05:41:37;2.27;;;1.47;;
14139;SDS011;7150;53.514;9.988;2022-08-01T05:44:03;1.90;;;1.70;;
14139;SDS011;7150;53.514;9.988;2022-08-01T05:46:29;2.00;;;1.90;;
14139;SDS011;7150;53.514;9.988;2022-08-01T05:48:56;2.30;;;2.10;;
14139;SDS011;7150;53.514;9.988;2022-08-01T05:51:25;2.57;;;2.37;;
14139;SDS011;7150;53.514;9.988;2022-08-01T05:53:51;2.37;;;2.17;;
14139;SDS011;7150;53.514;9.988;2022-08-01T05:56:17;2.90;;;2.70;;
14139;SDS011;7150;53.514;9.988;2022-08-01T05:58:43;3.80;;;2.80;;
14139;SDS011;7150;53.514;9.988;2022-08-01T06:01:09;2.70;;;2.50;;
14139;SDS011;7150;53.514;9.988;2022-08-01T06:03:35;2.67;;;2.47;;
14139;SDS011;7150;53.514;9.988;2022-08-01T06:06:00;2.53;;;2.33;;
14139;SDS011;7150;53.514;9.988;2022-08-01T06:08:41;2.07;;;1.97;;
14139;SDS011;7150;53.514;9.988;2022-08-01T06:11:07;2.20;;;2.00;;
14139;SDS011;7150;53.514;9.988;2022-08-01T06:13:33;2.20;;;1.90;;
14139;SDS011;7150;53.514;9.988;2022-08-01T06:15:58;2.10;;;1.90;;
14139;SDS011;7150;53.514;9.988;2022-08-01T06:18:24;2.93;;;1.90;;
14139;SDS011;7150;53.514;9.988;2022-08-01T06:20:49;2.00;;;1.80;;
14139;SDS011;7150;53.514;9.988;2022-08-01T06:26:37;2.50;;;2.30;;
14139;SDS011;7150;53.514;9.988;2022-08-01T06:29:02;3.07;;;2.50;;
14139;SDS011;7150;53.514;9.988;2022-08-01T06:31:28;5.77;;;2.77;;
14139;SDS011;7150;53.514;9.988;2022-08-01T06:33:53;6.30;;;2.97;;
14139;SDS011;7150;53.514;9.988;2022-08-01T06:36:20;5.47;;;2.83;;
14139;SDS011;7150;53.514;9.988;2022-08-01T06:38:45;2.73;;;2.47;;
14139;SDS011;7150;53.514;9.988;2022-08-01T06:41:11;3.23;;;2.77;;
14139;SDS011;7150;53.514;9.988;2022-08-01T06:43:36;3.63;;;2.80;;
14139;SDS011;7150;53.514;9.988;2022-08-01T06:46:02;2.63;;;2.27;;
14139;SDS011;7150;53.514;9.988;2022-08-01T06:48:27;2.50;;;2.10;;
14139;SDS011;7150;53.514;9.988;2022-08-01T06:50:53;4.87;;;2.40;;
14139;SDS011;7150;53.514;9.988;2022-08-01T06:53:32;6.93;;;3.03;;
14139;SDS011;7150;53.514;9.988;2022-08-01T06:56:01;2.50;;;2.00;;
14139;SDS011;7150;53.514;9.988;2022-08-01T06:58:27;3.57;;;2.50;;
14139;SDS011;7150;53.514;9.988;2022-08-01T07:00:52;4.50;;;2.33;;
14139;SDS011;7150;53.514;9.988;2022-08-01T07:03:18;4.53;;;2.60;;
14139;SDS011;7150;53.514;9.988;2022-08-01T07:05:43;4.17;;;2.40;;
14139;SDS011;7150;53.514;9.988;2022-08-01T07:08:09;3.20;;;2.37;;
14139;SDS011;7150;53.514;9.988;2022-08-01T07:10:34;3.67;;;1.93;;
14139;SDS011;7150;53.514;9.988;2022-08-01T07:13:00;3.53;;;1.83;;
14139;SDS011;7150;53.514;9.988;2022-08-01T07:15:25;3.27;;;2.23;;
14139;SDS011;7150;53.514;9.988;2022-08-01T07:17:51;4.10;;;2.23;;
14139;SDS011;7150;53.514;9.988;2022-08-01T07:20:18;4.77;;;2.10;;
14139;SDS011;7150;53.514;9.988;2022-08-01T07:22:44;3.00;;;1.80;;
14139;SDS011;7150;53.514;9.988;2022-08-01T07:25:10;2.87;;;1.77;;
14139;SDS011;7150;53.514;9.988;2022-08-01T07:27:35;3.83;;;2.57;;
14139;SDS011;7150;53.514;9.988;2022-08-01T07:30:02;4.30;;;2.30;;
14139;SDS011;7150;53.514;9.988;2022-08-01T07:32:29;4.20;;;2.60;;
14139;SDS011;7150;53.514;9.988;2022-08-01T07:34:55;3.20;;;2.50;;
14139;SDS011;7150;53.514;9.988;2022-08-01T07:37:21;3.90;;;2.90;;
14139;SDS011;7150;53.514;9.988;2022-08-01T07:39:48;6.53;;;3.13;;
14139;SDS011;7150;53.514;9.988;2022-08-01T07:42:13;4.90;;;3.23;;
14139;SDS011;7150;53.514;9.988;2022-08-01T07:44:39;7.97;;;3.70;;
14139;SDS011;7150;53.514;9.988;2022-08-01T07:47:05;8.37;;;3.97;;
14139;SDS011;7150;53.514;9.988;2022-08-01T07:49:30;4.67;;;3.10;;
14139;SDS011;7150;53.514;9.988;2022-08-01T07:51:56;3.77;;;2.90;;
14139;SDS011;7150;53.514;9.988;2022-08-01T07:54:21;5.63;;;3.30;;
14139;SDS011;7150;53.514;9.988;2022-08-01T07:56:49;5.00;;;2.87;;
14139;SDS011;7150;53.514;9.988;2022-08-01T07:59:15;4.97;;;2.90;;
14139;SDS011;7150;53.514;9.988;2022-08-01T08:01:40;4.13;;;2.70;;
14139;SDS011;7150;53.514;9.988;2022-08-01T08:04:06;4.83;;;2.73;;
14139;SDS011;7150;53.514;9.988;2022-08-01T08:06:32;5.27;;;2.70;;
14139;SDS011;7150;53.514;9.988;2022-08-01T08:08:57;5.70;;;2.60;;
14139;SDS011;7150;53.514;9.988;2022-08-01T08:11:23;8.60;;;2.27;;
14139;SDS011;7150;53.514;9.988;2022-08-01T08:13:49;8.30;;;3.20;;
14139;SDS011;7150;53.514;9.988;2022-08-01T08:16:14;5.37;;;2.20;;
14139;SDS011;7150;53.514;9.988;2022-08-01T08:18:40;4.90;;;2.57;;
14139;SDS011;7150;53.514;9.988;2022-08-01T08:21:06;2.83;;;2.17;;
14139;SDS011;7150;53.514;9.988;2022-08-01T08:23:31;3.77;;;1.90;;
14139;SDS011;7150;53.514;9.988;2022-08-01T08:26:15;5.67;;;2.07;;
14139;SDS011;7150;53.514;9.988;2022-08-01T08:28:41;7.90;;;1.87;;
14139;SDS011;7150;53.514;9.988;2022-08-01T08:31:07;3.00;;;1.70;;
14139;SDS011;7150;53.514;9.988;2022-08-01T08:33:33;5.57;;;1.80;;
14139;SDS011;7150;53.514;9.988;2022-08-01T08:35:58;2.20;;;1.40;;
14139;SDS011;7150;53.514;9.988;2022-08-01T08:38:24;6.27;;;1.60;;
14139;SDS011;7150;53.514;9.988;2022-08-01T08:40:52;4.77;;;1.60;;
14139;SDS011;7150;53.514;9.988;2022-08-01T08:43:17;2.07;;;1.50;;
14139;SDS011;7150;53.514;9.988;2022-08-01T08:45:44;2.33;;;1.27;;
14139;SDS011;7150;53.514;9.988;2022-08-01T08:48:11;4.60;;;2.00;;
14139;SDS011;7150;53.514;9.988;2022-08-01T08:50:37;2.47;;;1.63;;
14139;SDS011;7150;53.514;9.988;2022-08-01T08:53:03;4.47;;;1.80;;
14139;SDS011;7150;53.514;9.988;2022-08-01T08:55:29;2.27;;;1.50;;
14139;SDS011;7150;53.514;9.988;2022-08-01T08:57:55;2.70;;;1.30;;
14139;SDS011;7150;53.514;9.988;2022-08-01T09:00:22;1.87;;;1.43;;
14139;SDS011;7150;53.514;9.988;2022-08-01T09:02:48;3.20;;;1.60;;
14139;SDS011;7150;53.514;9.988;2022-08-01T09:05:21;5.00;;;1.60;;
14139;SDS011;7150;53.514;9.988;2022-08-01T09:07:50;3.37;;;1.40;;
14139;SDS011;7150;53.514;9.988;2022-08-01T09:10:16;4.93;;;1.57;;
14139;SDS011;7150;53.514;9.988;2022-08-01T09:13:01;2.53;;;1.23;;
14139;SDS011;7150;53.514;9.988;2022-08-01T09:15:41;4.47;;;1.40;;
14139;SDS011;7150;53.514;9.988;2022-08-01T09:21:18;2.67;;;1.43;;
14139;SDS011;7150;53.514;9.988;2022-08-01T09:23:50;2.57;;;1.23;;
14139;SDS011;7150;53.514;9.988;2022-08-01T09:26:18;3.53;;;1.47;;
14139;SDS011;7150;53.514;9.988;2022-08-01T09:28:46;4.90;;;1.50;;
14139;SDS011;7150;53.514;9.988;2022-08-01T09:31:16;2.20;;;1.47;;
14139;SDS011;7150;53.514;9.988;2022-08-01T09:33:47;5.60;;;1.63;;
14139;SDS011;7150;53.514;9.988;2022-08-01T09:36:19;2.13;;;1.50;;
14139;SDS011;7150;53.514;9.988;2022-08-01T09:38:49;5.67;;;1.70;;
14139;SDS011;7150;53.514;9.988;2022-08-01T09:41:28;3.03;;;1.57;;
14139;SDS011;7150;53.514;9.988;2022-08-01T09:43:56;5.70;;;1.60;;
14139;SDS011;7150;53.514;9.988;2022-08-01T09:46:22;2.33;;;1.60;;
14139;SDS011;7150;53.514;9.988;2022-08-01T09:49:00;2.13;;;1.60;;
14139;SDS011;7150;53.514;9.988;2022-08-01T09:51:37;3.83;;;1.77;;
14139;SDS011;7150;53.514;9.988;2022-08-01T09:54:04;3.40;;;1.57;;
14139;SDS011;7150;53.514;9.988;2022-08-01T09:56:40;2.30;;;1.60;;
14139;SDS011;7150;53.514;9.988;2022-08-01T09:59:13;3.20;;;1.60;;
14139;SDS011;7150;53.514;9.988;2022-08-01T10:01:48;3.63;;;1.60;;
14139;SDS011;7150;53.514;9.988;2022-08-01T10:04:17;6.47;;;2.30;;
14139;SDS011;7150;53.514;9.988;2022-08-01T10:06:48;4.20;;;2.50;;
14139;SDS011;7150;53.514;9.988;2022-08-01T10:09:27;5.80;;;2.27;;
14139;SDS011;7150;53.514;9.988;2022-08-01T10:11:54;2.27;;;1.73;;
14139;SDS011;7150;53.514;9.988;2022-08-01T10:14:22;5.33;;;1.97;;
14139;SDS011;7150;53.514;9.988;2022-08-01T10:16:49;1.80;;;1.50;;
14139;SDS011;7150;53.514;9.988;2022-08-01T10:19:21;4.63;;;2.10;;
14139;SDS011;7150;53.514;9.988;2022-08-01T10:21:48;4.33;;;2.63;;
14139;SDS011;7150;53.514;9.988;2022-08-01T10:24:17;4.97;;;1.93;;
14139;SDS011;7150;53.514;9.988;2022-08-01T10:26:48;5.00;;;2.00;;
14139;SDS011;7150;53.514;9.988;2022-08-01T10:29:16;4.13;;;1.80;;
14139;SDS011;7150;53.514;9.988;2022-08-01T10:31:45;2.50;;;1.90;;
14139;SDS011;7150;53.514;9.988;2022-08-01T10:34:11;2.97;;;2.07;;
14139;SDS011;7150;53.514;9.988;2022-08-01T10:36:41;1.87;;;1.53;;
14139;SDS011;7150;53.514;9.988;2022-08-01T10:39:12;4.93;;;2.00;;
14139;SDS011;7150;53.514;9.988;2022-08-01T10:41:38;6.53;;;1.83;;
14139;SDS011;7150;53.514;9.988;2022-08-01T10:44:06;2.83;;;1.40;;
14139;SDS011;7150;53.514;9.988;2022-08-01T10:46:32;4.83;;;1.90;;
14139;SDS011;7150;53.514;9.988;2022-08-01T10:49:02;2.87;;;1.70;;
14139;SDS011;7150;53.514;9.988;2022-08-01T10:51:34;4.07;;;1.97;;
14139;SDS011;7150;53.514;9.988;2022-08-01T10:54:04;9.90;;;1.97;;
14139;SDS011;7150;53.514;9.988;2022-08-01T10:56:44;1.73;;;1.20;;
14139;SDS011;7150;53.514;9.988;2022-08-01T10:59:19;5.50;;;1.87;;
14139;SDS011;7150;53.514;9.988;2022-08-01T11:02:00;7.50;;;1.90;;
14139;SDS011;7150;53.514;9.988;2022-08-01T11:04:34;5.83;;;2.00;;
14139;SDS011;7150;53.514;9.988;2022-08-01T11:07:03;3.20;;;1.70;;
14139;SDS011;7150;53.514;9.988;2022-08-01T11:09:40;2.70;;;1.10;;
14139;SDS011;7150;53.514;9.988;2022-08-01T11:12:14;4.27;;;1.43;;
14139;SDS011;7150;53.514;9.988;2022-08-01T11:15:24;2.83;;;1.13;;
14139;SDS011;7150;53.514;9.988;2022-08-01T11:17:42;2.67;;;1.30;;
14139;SDS011;7150;53.514;9.988;2022-08-01T11:20:25;4.00;;;1.47;;
14139;SDS011;7150;53.514;9.988;2022-08-01T11:30:39;2.53;;;1.40;;
14139;SDS011;7150;53.514;9.988;2022-08-01T11:33:05;4.43;;;1.53;;
14139;SDS011;7150;53.514;9.988;2022-08-01T11:35:31;2.80;;;1.47;;
14139;SDS011;7150;53.514;9.988;2022-08-01T11:37:58;3.83;;;1.50;;
14139;SDS011;7150;53.514;9.988;2022-08-01T11:41:09;1.77;;;1.20;;
14139;SDS011;7150;53.514;9.988;2022-08-01T11:43:34;5.03;;;1.43;;
14139;SDS011;7150;53.514;9.988;2022-08-01T11:46:00;3.40;;;1.30;;
14139;SDS011;7150;53.514;9.988;2022-08-01T11:48:26;4.80;;;1.60;;
14139;SDS011;7150;53.514;9.988;2022-08-01T11:50:56;4.40;;;1.47;;
14139;SDS011;7150;53.514;9.988;2022-08-01T11:53:22;3.43;;;1.43;;
14139;SDS011;7150;53.514;9.988;2022-08-01T11:58:15;3.40;;;1.50;;
14139;SDS011;7150;53.514;9.988;2022-08-01T12:00:52;6.30;;;2.47;;
14139;SDS011;7150;53.514;9.988;2022-08-01T12:03:25;3.70;;;2.20;;
14139;SDS011;7150;53.514;9.988;2022-08-01T12:05:55;6.77;;;2.10;;
14139;SDS011;7150;53.514;9.988;2022-08-01T12:08:25;3.17;;;1.50;;
14139;SDS011;7150;53.514;9.988;2022-08-01T12:10:58;4.37;;;1.53;;
14139;SDS011;7150;53.514;9.988;2022-08-01T12:13:25;4.13;;;1.90;;
14139;SDS011;7150;53.514;9.988;2022-08-01T12:15:51;2.63;;;1.43;;
14139;SDS011;7150;53.514;9.988;2022-08-01T12:18:18;7.53;;;1.90;;
14139;SDS011;7150;53.514;9.988;2022-08-01T12:20:45;2.77;;;1.30;;
14139;SDS011;7150;53.514;9.988;2022-08-01T12:23:12;3.27;;;1.30;;
14139;SDS011;7150;53.514;9.988;2022-08-01T12:25:39;3.03;;;1.50;;
14139;SDS011;7150;53.514;9.988;2022-08-01T12:28:08;5.80;;;1.60;;
14139;SDS011;7150;53.514;9.988;2022-08-01T12:30:35;4.50;;;1.67;;
14139;SDS011;7150;53.514;9.988;2022-08-01T12:33:03;3.07;;;1.20;;
14139;SDS011;7150;53.514;9.988;2022-08-01T12:35:34;3.07;;;1.20;;
14139;SDS011;7150;53.514;9.988;2022-08-01T12:38:04;4.37;;;1.43;;
14139;SDS011;7150;53.514;9.988;2022-08-01T12:40:32;3.50;;;1.50;;
14139;SDS011;7150;53.514;9.988;2022-08-01T12:42:59;4.90;;;1.43;;
14139;SDS011;7150;53.514;9.988;2022-08-01T12:45:33;4.03;;;1.77;;
14139;SDS011;7150;53.514;9.988;2022-08-01T12:48:01;4.13;;;1.40;;
14139;SDS011;7150;53.514;9.988;2022-08-01T12:50:32;3.67;;;1.23;;
14139;SDS011;7150;53.514;9.988;2022-08-01T12:52:58;4.43;;;1.47;;
14139;SDS011;7150;53.514;9.988;2022-08-01T12:55:24;4.07;;;1.67;;
14139;SDS011;7150;53.514;9.988;2022-08-01T12:58:04;3.37;;;1.40;;
14139;SDS011;7150;53.514;9.988;2022-08-01T13:00:32;1.47;;;1.03;;
14139;SDS011;7150;53.514;9.988;2022-08-01T13:03:08;3.67;;;1.20;;
14139;SDS011;7150;53.514;9.988;2022-08-01T13:05:48;2.57;;;1.13;;
14139;SDS011;7150;53.514;9.988;2022-08-01T13:08:16;4.90;;;1.60;;
14139;SDS011;7150;53.514;9.988;2022-08-01T13:10:46;3.40;;;1.57;;
14139;SDS011;7150;53.514;9.988;2022-08-01T13:13:13;2.90;;;1.23;;
14139;SDS011;7150;53.514;9.988;2022-08-01T13:15:40;3.80;;;1.40;;
14139;SDS011;7150;53.514;9.988;2022-08-01T13:21:09;1.37;;;1.00;;
14139;SDS011;7150;53.514;9.988;2022-08-01T13:26:52;3.17;;;1.20;;
14139;SDS011;7150;53.514;9.988;2022-08-01T13:29:37;3.90;;;1.20;;
14139;SDS011;7150;53.514;9.988;2022-08-01T13:32:17;2.73;;;1.37;;
14139;SDS011;7150;53.514;9.988;2022-08-01T13:34:44;3.50;;;1.13;;
14139;SDS011;7150;53.514;9.988;2022-08-01T13:37:10;6.17;;;1.50;;
14139;SDS011;7150;53.514;9.988;2022-08-01T13:39:36;1.40;;;0.77;;
14139;SDS011;7150;53.514;9.988;2022-08-01T13:42:10;2.33;;;1.10;;
14139;SDS011;7150;53.514;9.988;2022-08-01T13:44:37;2.70;;;1.27;;
14139;SDS011;7150;53.514;9.988;2022-08-01T13:47:04;3.43;;;0.90;;
14139;SDS011;7150;53.514;9.988;2022-08-01T13:49:30;1.63;;;1.10;;
14139;SDS011;7150;53.514;9.988;2022-08-01T13:51:56;2.20;;;1.00;;
14139;SDS011;7150;53.514;9.988;2022-08-01T13:54:22;2.20;;;1.10;;
14139;SDS011;7150;53.514;9.988;2022-08-01T13:56:48;2.73;;;1.13;;
14139;SDS011;7150;53.514;9.988;2022-08-01T13:59:14;3.63;;;1.40;;
14139;SDS011;7150;53.514;9.988;2022-08-01T14:01:40;1.33;;;0.97;;
14139;SDS011;7150;53.514;9.988;2022-08-01T14:04:06;3.87;;;1.23;;
14139;SDS011;7150;53.514;9.988;2022-08-01T14:06:32;2.20;;;1.10;;
14139;SDS011;7150;53.514;9.988;2022-08-01T14:08:57;3.07;;;1.00;;
14139;SDS011;7150;53.514;9.988;2022-08-01T14:11:23;2.83;;;1.03;;
14139;SDS011;7150;53.514;9.988;2022-08-01T14:13:49;1.40;;;0.77;;
14139;SDS011;7150;53.514;9.988;2022-08-01T14:16:16;3.80;;;1.03;;
14139;SDS011;7150;53.514;9.988;2022-08-01T14:18:42;3.13;;;1.30;;
14139;SDS011;7150;53.514;9.988;2022-08-01T14:21:07;2.00;;;0.80;;
14139;SDS011;7150;53.514;9.988;2022-08-01T14:23:33;1.73;;;0.80;;
14139;SDS011;7150;53.514;9.988;2022-08-01T14:25:59;4.10;;;1.03;;
14139;SDS011;7150;53.514;9.988;2022-08-01T14:28:24;3.37;;;0.97;;
14139;SDS011;7150;53.514;9.988;2022-08-01T14:30:52;1.40;;;0.87;;
14139;SDS011;7150;53.514;9.988;2022-08-01T14:33:20;1.20;;;1.10;;
14139;SDS011;7150;53.514;9.988;2022-08-01T14:35:46;1.97;;;1.00;;
14139;SDS011;7150;53.514;9.988;2022-08-01T14:38:11;4.23;;;1.27;;
14139;SDS011;7150;53.514;9.988;2022-08-01T14:40:37;3.07;;;1.00;;
14139;SDS011;7150;53.514;9.988;2022-08-01T14:43:02;2.07;;;1.00;;
14139;SDS011;7150;53.514;9.988;2022-08-01T14:45:28;3.23;;;1.03;;
14139;SDS011;7150;53.514;9.988;2022-08-01T14:47:54;2.03;;;1.07;;
14139;SDS011;7150;53.514;9.988;2022-08-01T14:50:19;1.47;;;1.00;;
14139;SDS011;7150;53.514;9.988;2022-08-01T14:52:45;4.73;;;1.17;;
14139;SDS011;7150;53.514;9.988;2022-08-01T14:55:11;2.03;;;1.07;;
14139;SDS011;7150;53.514;9.988;2022-08-01T14:57:38;3.27;;;1.47;;
14139;SDS011;7150;53.514;9.988;2022-08-01T15:00:04;1.43;;;1.10;;
14139;SDS011;7150;53.514;9.988;2022-08-01T15:02:32;3.87;;;1.20;;
14139;SDS011;7150;53.514;9.988;2022-08-01T15:04:58;3.13;;;1.30;;
14139;SDS011;7150;53.514;9.988;2022-08-01T15:07:24;2.37;;;1.33;;
14139;SDS011;7150;53.514;9.988;2022-08-01T15:09:49;2.03;;;0.87;;
14139;SDS011;7150;53.514;9.988;2022-08-01T15:12:15;2.63;;;1.30;;
14139;SDS011;7150;53.514;9.988;2022-08-01T15:14:40;1.60;;;1.10;;
14139;SDS011;7150;53.514;9.988;2022-08-01T15:17:12;2.60;;;1.20;;
14139;SDS011;7150;53.514;9.988;2022-08-01T15:19:38;1.97;;;1.10;;
14139;SDS011;7150;53.514;9.988;2022-08-01T15:22:04;2.20;;;1.23;;
14139;SDS011;7150;53.514;9.988;2022-08-01T15:24:30;2.47;;;1.20;;
14139;SDS011;7150;53.514;9.988;2022-08-01T15:26:56;2.07;;;1.20;;
14139;SDS011;7150;53.514;9.988;2022-08-01T15:29:21;2.73;;;1.30;;
14139;SDS011;7150;53.514;9.988;2022-08-01T15:31:47;1.60;;;1.20;;
14139;SDS011;7150;53.514;9.988;2022-08-01T15:34:12;3.00;;;1.23;;
14139;SDS011;7150;53.514;9.988;2022-08-01T15:36:38;2.73;;;1.27;;
14139;SDS011;7150;53.514;9.988;2022-08-01T15:39:03;2.50;;;1.50;;
14139;SDS011;7150;53.514;9.988;2022-08-01T15:41:29;3.00;;;1.63;;